sensor_id;sensor_type;location;lat;lon;timestamp;P1;durP1;ratioP1;P2;durP2;ratioP2
7029;SDS011;3556;53.500;10.176;2023-05-10T00:00:12;9.60;;;4.40;;
7029;SDS011;3556;53.500;10.176;2023-05-10T00:02:38;5.07;;;4.70;;
7029;SDS011;3556;53.500;10.176;2023-05-10T00:05:04;5.33;;;5.03;;
7029;SDS011;3556;53.500;10.176;2023-05-10T00:07:30;5.57;;;4.97;;
7029;SDS011;3556;53.500;10.176;2023-05-10T00:09:56;5.30;;;4.90;;
7029;SDS011;3556;53.500;10.176;2023-05-10T00:12:21;10.63;;;4.80;;
7029;SDS011;3556;53.500;10.176;2023-05-10T00:14:47;5.30;;;5.10;;
7029;SDS011;3556;53.500;10.176;2023-05-10T00:17:13;15.97;;;6.40;;
7029;SDS011;3556;53.500;10.176;2023-05-10T00:19:38;5.57;;;5.07;;
7029;SDS011;3556;53.500;10.176;2023-05-10T00:22:04;5.10;;;4.80;;
7029;SDS011;3556;53.500;10.176;2023-05-10T00:24:29;5.70;;;5.17;;
7029;SDS011;3556;53.500;10.176;2023-05-10T00:26:55;5.60;;;5.10;;
7029;SDS011;3556;53.500;10.176;2023-05-10T00:29:21;8.20;;;5.00;;
7029;SDS011;3556;53.500;10.176;2023-05-10T00:31:46;5.20;;;5.00;;
7029;SDS011;3556;53.500;10.176;2023-05-10T00:34:12;5.50;;;5.00;;
7029;SDS011;3556;53.500;10.176;2023-05-10T00:36:37;5.37;;;4.93;;
7029;SDS011;3556;53.500;10.176;2023-05-10T00:39:03;5.10;;;4.50;;
7029;SDS011;3556;53.500;10.176;2023-05-10T00:41:29;11.43;;;5.30;;
7029;SDS011;3556;53.500;10.176;2023-05-10T00:43:57;5.30;;;5.00;;
7029;SDS011;3556;53.500;10.176;2023-05-10T00:46:23;5.80;;;5.40;;
7029;SDS011;3556;53.500;10.176;2023-05-10T00:48:50;5.50;;;5.10;;
7029;SDS011;3556;53.500;10.176;2023-05-10T00:51:16;11.37;;;5.60;;
7029;SDS011;3556;53.500;10.176;2023-05-10T00:53:43;4.83;;;4.63;;
7029;SDS011;3556;53.500;10.176;2023-05-10T00:56:13;5.07;;;4.77;;
7029;SDS011;3556;53.500;10.176;2023-05-10T00:58:39;5.53;;;5.03;;
7029;SDS011;3556;53.500;10.176;2023-05-10T01:01:05;6.10;;;4.97;;
7029;SDS011;3556;53.500;10.176;2023-05-10T01:03:33;4.93;;;4.60;;
7029;SDS011;3556;53.500;10.176;2023-05-10T01:05:59;5.50;;;5.13;;
7029;SDS011;3556;53.500;10.176;2023-05-10T01:08:25;5.47;;;5.17;;
7029;SDS011;3556;53.500;10.176;2023-05-10T01:10:51;9.10;;;5.00;;
7029;SDS011;3556;53.500;10.176;2023-05-10T01:13:18;5.20;;;4.70;;
7029;SDS011;3556;53.500;10.176;2023-05-10T01:15:53;6.47;;;5.00;;
7029;SDS011;3556;53.500;10.176;2023-05-10T01:18:19;6.20;;;4.60;;
7029;SDS011;3556;53.500;10.176;2023-05-10T01:20:46;7.00;;;4.70;;
7029;SDS011;3556;53.500;10.176;2023-05-10T01:23:31;5.30;;;4.90;;
7029;SDS011;3556;53.500;10.176;2023-05-10T01:34:25;5.93;;;5.50;;
7029;SDS011;3556;53.500;10.176;2023-05-10T01:36:58;5.40;;;4.90;;
7029;SDS011;3556;53.500;10.176;2023-05-10T01:39:32;5.43;;;5.03;;
7029;SDS011;3556;53.500;10.176;2023-05-10T01:42:02;5.17;;;4.63;;
7029;SDS011;3556;53.500;10.176;2023-05-10T01:44:34;10.10;;;5.83;;
7029;SDS011;3556;53.500;10.176;2023-05-10T01:50:03;6.23;;;5.20;;
7029;SDS011;3556;53.500;10.176;2023-05-10T01:52:36;5.50;;;5.20;;
7029;SDS011;3556;53.500;10.176;2023-05-10T01:55:10;5.90;;;5.40;;
7029;SDS011;3556;53.500;10.176;2023-05-10T01:57:39;8.90;;;5.13;;
7029;SDS011;3556;53.500;10.176;2023-05-10T02:00:07;5.87;;;5.37;;
7029;SDS011;3556;53.500;10.176;2023-05-10T02:02:39;6.63;;;5.20;;
7029;SDS011;3556;53.500;10.176;2023-05-10T02:05:07;7.73;;;4.70;;
7029;SDS011;3556;53.500;10.176;2023-05-10T02:07:34;5.43;;;4.80;;
7029;SDS011;3556;53.500;10.176;2023-05-10T02:10:02;62.13;;;5.80;;
7029;SDS011;3556;53.500;10.176;2023-05-10T02:12:35;5.27;;;4.97;;
7029;SDS011;3556;53.500;10.176;2023-05-10T02:15:03;5.60;;;5.10;;
7029;SDS011;3556;53.500;10.176;2023-05-10T02:17:31;4.97;;;4.60;;
7029;SDS011;3556;53.500;10.176;2023-05-10T02:19:58;12.33;;;5.63;;
7029;SDS011;3556;53.500;10.176;2023-05-10T02:22:25;4.53;;;4.20;;
7029;SDS011;3556;53.500;10.176;2023-05-10T02:24:53;3.43;;;2.97;;
7029;SDS011;3556;53.500;10.176;2023-05-10T02:27:20;3.10;;;2.97;;
7029;SDS011;3556;53.500;10.176;2023-05-10T02:29:49;3.40;;;3.30;;
7029;SDS011;3556;53.500;10.176;2023-05-10T02:32:16;3.43;;;3.23;;
7029;SDS011;3556;53.500;10.176;2023-05-10T02:34:43;3.30;;;3.20;;
7029;SDS011;3556;53.500;10.176;2023-05-10T02:37:11;3.13;;;3.03;;
7029;SDS011;3556;53.500;10.176;2023-05-10T02:39:39;3.40;;;3.20;;
7029;SDS011;3556;53.500;10.176;2023-05-10T02:42:09;2.80;;;2.70;;
7029;SDS011;3556;53.500;10.176;2023-05-10T02:44:40;3.50;;;3.30;;
7029;SDS011;3556;53.500;10.176;2023-05-10T02:47:08;3.17;;;3.00;;
7029;SDS011;3556;53.500;10.176;2023-05-10T02:49:33;3.47;;;3.27;;
7029;SDS011;3556;53.500;10.176;2023-05-10T02:52:00;2.90;;;2.80;;
7029;SDS011;3556;53.500;10.176;2023-05-10T02:54:30;3.43;;;3.13;;
7029;SDS011;3556;53.500;10.176;2023-05-10T02:56:58;4.60;;;3.33;;
7029;SDS011;3556;53.500;10.176;2023-05-10T02:59:26;3.30;;;3.20;;
7029;SDS011;3556;53.500;10.176;2023-05-10T03:01:52;3.50;;;3.30;;
7029;SDS011;3556;53.500;10.176;2023-05-10T03:04:17;3.63;;;3.43;;
7029;SDS011;3556;53.500;10.176;2023-05-10T03:06:43;3.10;;;2.90;;
7029;SDS011;3556;53.500;10.176;2023-05-10T03:09:09;3.03;;;2.83;;
7029;SDS011;3556;53.500;10.176;2023-05-10T03:14:31;3.10;;;2.90;;
7029;SDS011;3556;53.500;10.176;2023-05-10T03:20:09;5.73;;;3.17;;
7029;SDS011;3556;53.500;10.176;2023-05-10T03:22:38;3.17;;;2.97;;
7029;SDS011;3556;53.500;10.176;2023-05-10T03:25:14;3.73;;;3.50;;
7029;SDS011;3556;53.500;10.176;2023-05-10T03:27:41;3.00;;;2.90;;
7029;SDS011;3556;53.500;10.176;2023-05-10T03:30:12;3.40;;;3.30;;
7029;SDS011;3556;53.500;10.176;2023-05-10T03:32:38;3.50;;;3.20;;
7029;SDS011;3556;53.500;10.176;2023-05-10T03:35:07;3.33;;;3.13;;
7029;SDS011;3556;53.500;10.176;2023-05-10T03:37:34;23.60;;;4.97;;
7029;SDS011;3556;53.500;10.176;2023-05-10T03:40:00;5.40;;;5.10;;
7029;SDS011;3556;53.500;10.176;2023-05-10T03:42:26;7.97;;;5.10;;
7029;SDS011;3556;53.500;10.176;2023-05-10T03:44:52;9.90;;;4.90;;
7029;SDS011;3556;53.500;10.176;2023-05-10T03:47:17;10.13;;;5.50;;
7029;SDS011;3556;53.500;10.176;2023-05-10T03:49:43;12.37;;;4.90;;
7029;SDS011;3556;53.500;10.176;2023-05-10T03:52:08;5.27;;;4.60;;
7029;SDS011;3556;53.500;10.176;2023-05-10T03:54:34;5.33;;;5.00;;
7029;SDS011;3556;53.500;10.176;2023-05-10T03:57:00;4.33;;;4.23;;
7029;SDS011;3556;53.500;10.176;2023-05-10T03:59:26;6.40;;;4.83;;
7029;SDS011;3556;53.500;10.176;2023-05-10T04:01:51;5.00;;;4.73;;
7029;SDS011;3556;53.500;10.176;2023-05-10T04:04:17;9.10;;;4.57;;
7029;SDS011;3556;53.500;10.176;2023-05-10T04:06:43;5.43;;;5.20;;
7029;SDS011;3556;53.500;10.176;2023-05-10T04:09:10;4.87;;;4.67;;
7029;SDS011;3556;53.500;10.176;2023-05-10T04:11:35;5.17;;;4.87;;
7029;SDS011;3556;53.500;10.176;2023-05-10T04:14:01;8.60;;;4.87;;
7029;SDS011;3556;53.500;10.176;2023-05-10T04:16:27;5.77;;;5.13;;
7029;SDS011;3556;53.500;10.176;2023-05-10T04:18:52;5.10;;;4.80;;
7029;SDS011;3556;53.500;10.176;2023-05-10T04:21:18;9.03;;;5.57;;
7029;SDS011;3556;53.500;10.176;2023-05-10T04:23:43;5.60;;;5.20;;
7029;SDS011;3556;53.500;10.176;2023-05-10T04:26:09;5.60;;;5.30;;
7029;SDS011;3556;53.500;10.176;2023-05-10T04:28:35;7.73;;;5.03;;
7029;SDS011;3556;53.500;10.176;2023-05-10T04:31:04;5.47;;;5.20;;
7029;SDS011;3556;53.500;10.176;2023-05-10T04:33:33;5.23;;;5.03;;
7029;SDS011;3556;53.500;10.176;2023-05-10T04:35:59;12.63;;;4.83;;
7029;SDS011;3556;53.500;10.176;2023-05-10T04:38:25;6.87;;;5.30;;
7029;SDS011;3556;53.500;10.176;2023-05-10T04:40:51;5.33;;;4.93;;
7029;SDS011;3556;53.500;10.176;2023-05-10T04:43:17;4.87;;;4.57;;
7029;SDS011;3556;53.500;10.176;2023-05-10T04:45:43;5.53;;;5.13;;
7029;SDS011;3556;53.500;10.176;2023-05-10T04:48:09;5.77;;;5.23;;
7029;SDS011;3556;53.500;10.176;2023-05-10T04:50:34;6.07;;;5.53;;
7029;SDS011;3556;53.500;10.176;2023-05-10T04:53:00;5.63;;;5.33;;
7029;SDS011;3556;53.500;10.176;2023-05-10T04:55:26;5.27;;;5.00;;
7029;SDS011;3556;53.500;10.176;2023-05-10T04:57:52;5.80;;;5.30;;
7029;SDS011;3556;53.500;10.176;2023-05-10T05:00:20;4.97;;;4.67;;
7029;SDS011;3556;53.500;10.176;2023-05-10T05:02:45;11.30;;;5.20;;
7029;SDS011;3556;53.500;10.176;2023-05-10T05:05:11;5.13;;;4.83;;
7029;SDS011;3556;53.500;10.176;2023-05-10T05:07:37;5.73;;;5.43;;
7029;SDS011;3556;53.500;10.176;2023-05-10T05:10:04;5.80;;;5.40;;
7029;SDS011;3556;53.500;10.176;2023-05-10T05:12:31;5.40;;;5.20;;
7029;SDS011;3556;53.500;10.176;2023-05-10T05:14:56;5.23;;;5.00;;
7029;SDS011;3556;53.500;10.176;2023-05-10T05:17:22;5.33;;;5.13;;
7029;SDS011;3556;53.500;10.176;2023-05-10T05:19:48;5.43;;;4.97;;
7029;SDS011;3556;53.500;10.176;2023-05-10T05:22:13;5.37;;;5.13;;
7029;SDS011;3556;53.500;10.176;2023-05-10T05:24:39;5.60;;;5.20;;
7029;SDS011;3556;53.500;10.176;2023-05-10T05:27:05;5.13;;;4.90;;
7029;SDS011;3556;53.500;10.176;2023-05-10T05:29:31;5.40;;;5.10;;
7029;SDS011;3556;53.500;10.176;2023-05-10T05:31:56;5.83;;;5.30;;
7029;SDS011;3556;53.500;10.176;2023-05-10T05:34:22;5.23;;;4.63;;
7029;SDS011;3556;53.500;10.176;2023-05-10T05:36:49;5.70;;;5.20;;
7029;SDS011;3556;53.500;10.176;2023-05-10T05:39:16;4.90;;;4.70;;
7029;SDS011;3556;53.500;10.176;2023-05-10T05:41:41;10.37;;;5.27;;
7029;SDS011;3556;53.500;10.176;2023-05-10T05:44:07;5.30;;;5.00;;
7029;SDS011;3556;53.500;10.176;2023-05-10T05:46:33;6.00;;;5.40;;
7029;SDS011;3556;53.500;10.176;2023-05-10T05:48:59;7.37;;;4.77;;
7029;SDS011;3556;53.500;10.176;2023-05-10T05:51:24;5.13;;;4.83;;
7029;SDS011;3556;53.500;10.176;2023-05-10T05:53:50;5.53;;;5.33;;
7029;SDS011;3556;53.500;10.176;2023-05-10T05:56:16;8.57;;;5.10;;
7029;SDS011;3556;53.500;10.176;2023-05-10T05:58:42;5.73;;;5.33;;
7029;SDS011;3556;53.500;10.176;2023-05-10T06:01:09;8.83;;;4.70;;
7029;SDS011;3556;53.500;10.176;2023-05-10T06:03:34;6.20;;;5.60;;
7029;SDS011;3556;53.500;10.176;2023-05-10T06:06:00;5.07;;;4.87;;
7029;SDS011;3556;53.500;10.176;2023-05-10T06:08:26;5.60;;;4.83;;
7029;SDS011;3556;53.500;10.176;2023-05-10T06:10:51;5.50;;;5.20;;
7029;SDS011;3556;53.500;10.176;2023-05-10T06:13:17;5.80;;;5.33;;
7029;SDS011;3556;53.500;10.176;2023-05-10T06:15:42;6.50;;;5.20;;
7029;SDS011;3556;53.500;10.176;2023-05-10T06:18:08;5.10;;;4.70;;
7029;SDS011;3556;53.500;10.176;2023-05-10T06:20:34;6.53;;;4.90;;
7029;SDS011;3556;53.500;10.176;2023-05-10T06:22:59;6.43;;;5.13;;
7029;SDS011;3556;53.500;10.176;2023-05-10T06:25:25;5.97;;;5.03;;
7029;SDS011;3556;53.500;10.176;2023-05-10T06:27:51;12.23;;;5.57;;
7029;SDS011;3556;53.500;10.176;2023-05-10T06:30:20;5.93;;;4.90;;
7029;SDS011;3556;53.500;10.176;2023-05-10T06:32:48;5.70;;;5.40;;
7029;SDS011;3556;53.500;10.176;2023-05-10T06:35:13;14.53;;;5.30;;
7029;SDS011;3556;53.500;10.176;2023-05-10T06:37:39;4.70;;;4.33;;
7029;SDS011;3556;53.500;10.176;2023-05-10T06:40:05;4.80;;;4.70;;
7029;SDS011;3556;53.500;10.176;2023-05-10T06:42:31;10.23;;;5.10;;
7029;SDS011;3556;53.500;10.176;2023-05-10T06:44:57;9.07;;;5.47;;
7029;SDS011;3556;53.500;10.176;2023-05-10T06:47:22;1999.90;;;999.90;;
7029;SDS011;3556;53.500;10.176;2023-05-10T06:49:48;29.57;;;5.00;;
7029;SDS011;3556;53.500;10.176;2023-05-10T06:52:14;8.57;;;5.30;;
7029;SDS011;3556;53.500;10.176;2023-05-10T06:54:39;4.90;;;4.70;;
7029;SDS011;3556;53.500;10.176;2023-05-10T06:57:05;15.60;;;5.57;;
7029;SDS011;3556;53.500;10.176;2023-05-10T06:59:31;5.27;;;4.80;;
7029;SDS011;3556;53.500;10.176;2023-05-10T07:01:56;6.03;;;5.23;;
7029;SDS011;3556;53.500;10.176;2023-05-10T07:04:22;5.60;;;5.10;;
7029;SDS011;3556;53.500;10.176;2023-05-10T07:06:48;10.83;;;4.80;;
7029;SDS011;3556;53.500;10.176;2023-05-10T07:09:14;8.13;;;5.80;;
7029;SDS011;3556;53.500;10.176;2023-05-10T07:11:40;5.13;;;4.83;;
7029;SDS011;3556;53.500;10.176;2023-05-10T07:14:06;5.23;;;4.83;;
7029;SDS011;3556;53.500;10.176;2023-05-10T07:16:32;5.23;;;5.00;;
7029;SDS011;3556;53.500;10.176;2023-05-10T07:18:57;18.03;;;5.57;;
7029;SDS011;3556;53.500;10.176;2023-05-10T07:21:23;9.43;;;5.50;;
7029;SDS011;3556;53.500;10.176;2023-05-10T07:23:49;11.10;;;5.33;;
7029;SDS011;3556;53.500;10.176;2023-05-10T07:26:15;5.10;;;4.60;;
7029;SDS011;3556;53.500;10.176;2023-05-10T07:28:40;5.63;;;5.17;;
7029;SDS011;3556;53.500;10.176;2023-05-10T07:31:07;6.30;;;5.17;;
7029;SDS011;3556;53.500;10.176;2023-05-10T07:33:32;1.90;;;1.80;;
7029;SDS011;3556;53.500;10.176;2023-05-10T07:35:58;1.30;;;1.20;;
7029;SDS011;3556;53.500;10.176;2023-05-10T07:38:23;7.70;;;2.20;;
7029;SDS011;3556;53.500;10.176;2023-05-10T07:40:49;45.40;;;4.50;;
7029;SDS011;3556;53.500;10.176;2023-05-10T07:43:14;1999.90;;;789.23;;
7029;SDS011;3556;53.500;10.176;2023-05-10T07:45:40;1010.00;;;561.37;;
7029;SDS011;3556;53.500;10.176;2023-05-10T07:48:06;519.57;;;176.03;;
7029;SDS011;3556;53.500;10.176;2023-05-10T07:50:32;1539.20;;;709.13;;
7029;SDS011;3556;53.500;10.176;2023-05-10T07:52:57;1999.90;;;999.90;;
7029;SDS011;3556;53.500;10.176;2023-05-10T07:55:23;300.30;;;59.37;;
7029;SDS011;3556;53.500;10.176;2023-05-10T07:57:49;50.73;;;5.70;;
7029;SDS011;3556;53.500;10.176;2023-05-10T08:00:16;39.50;;;2.20;;
7029;SDS011;3556;53.500;10.176;2023-05-10T08:02:43;23.30;;;3.10;;
7029;SDS011;3556;53.500;10.176;2023-05-10T08:05:09;11.80;;;6.83;;
7029;SDS011;3556;53.500;10.176;2023-05-10T08:07:35;2.30;;;1.83;;
7029;SDS011;3556;53.500;10.176;2023-05-10T08:10:01;12.90;;;2.90;;
7029;SDS011;3556;53.500;10.176;2023-05-10T08:12:27;2.83;;;2.60;;
7029;SDS011;3556;53.500;10.176;2023-05-10T08:14:53;2.13;;;1.93;;
7029;SDS011;3556;53.500;10.176;2023-05-10T08:17:18;2.30;;;2.03;;
7029;SDS011;3556;53.500;10.176;2023-05-10T08:19:44;1984.90;;;827.97;;
7029;SDS011;3556;53.500;10.176;2023-05-10T08:22:09;1999.90;;;999.90;;
7029;SDS011;3556;53.500;10.176;2023-05-10T08:24:35;1999.90;;;999.90;;
7029;SDS011;3556;53.500;10.176;2023-05-10T08:27:04;5.47;;;2.60;;
7029;SDS011;3556;53.500;10.176;2023-05-10T08:29:30;5.20;;;2.60;;
7029;SDS011;3556;53.500;10.176;2023-05-10T08:31:56;4.17;;;2.73;;
7029;SDS011;3556;53.500;10.176;2023-05-10T08:34:22;5.47;;;3.17;;
7029;SDS011;3556;53.500;10.176;2023-05-10T08:36:48;4.23;;;2.40;;
7029;SDS011;3556;53.500;10.176;2023-05-10T08:39:14;5.67;;;2.70;;
7029;SDS011;3556;53.500;10.176;2023-05-10T08:41:39;6.30;;;2.57;;
7029;SDS011;3556;53.500;10.176;2023-05-10T08:44:09;3.80;;;3.07;;
7029;SDS011;3556;53.500;10.176;2023-05-10T08:46:35;3.57;;;2.60;;
7029;SDS011;3556;53.500;10.176;2023-05-10T08:49:04;7.23;;;3.00;;
7029;SDS011;3556;53.500;10.176;2023-05-10T08:51:34;3.60;;;2.90;;
7029;SDS011;3556;53.500;10.176;2023-05-10T08:54:02;8.00;;;3.20;;
7029;SDS011;3556;53.500;10.176;2023-05-10T08:56:28;4.87;;;2.80;;
7029;SDS011;3556;53.500;10.176;2023-05-10T08:58:54;6.53;;;3.13;;
7029;SDS011;3556;53.500;10.176;2023-05-10T09:01:21;4.33;;;2.70;;
7029;SDS011;3556;53.500;10.176;2023-05-10T09:03:47;5.30;;;3.23;;
7029;SDS011;3556;53.500;10.176;2023-05-10T09:06:14;7.53;;;2.30;;
7029;SDS011;3556;53.500;10.176;2023-05-10T09:08:41;6.43;;;3.03;;
7029;SDS011;3556;53.500;10.176;2023-05-10T09:11:08;3.10;;;2.47;;
7029;SDS011;3556;53.500;10.176;2023-05-10T09:13:35;3.90;;;2.73;;
7029;SDS011;3556;53.500;10.176;2023-05-10T09:16:01;4.13;;;2.53;;
7029;SDS011;3556;53.500;10.176;2023-05-10T09:18:28;5.30;;;2.70;;
7029;SDS011;3556;53.500;10.176;2023-05-10T09:20:54;3.77;;;2.43;;
7029;SDS011;3556;53.500;10.176;2023-05-10T09:23:19;4.70;;;2.97;;
7029;SDS011;3556;53.500;10.176;2023-05-10T09:25:45;3.93;;;2.97;;
7029;SDS011;3556;53.500;10.176;2023-05-10T09:28:11;4.10;;;3.00;;
7029;SDS011;3556;53.500;10.176;2023-05-10T09:30:37;4.80;;;2.83;;
7029;SDS011;3556;53.500;10.176;2023-05-10T09:33:03;9.33;;;2.90;;
7029;SDS011;3556;53.500;10.176;2023-05-10T09:35:30;4.97;;;2.87;;
7029;SDS011;3556;53.500;10.176;2023-05-10T09:38:02;4.73;;;2.50;;
7029;SDS011;3556;53.500;10.176;2023-05-10T09:40:29;4.43;;;2.90;;
7029;SDS011;3556;53.500;10.176;2023-05-10T09:45:26;2.80;;;2.27;;
7029;SDS011;3556;53.500;10.176;2023-05-10T09:47:56;4.37;;;2.90;;
7029;SDS011;3556;53.500;10.176;2023-05-10T09:50:24;4.30;;;2.70;;
7029;SDS011;3556;53.500;10.176;2023-05-10T09:52:53;2.80;;;2.43;;
7029;SDS011;3556;53.500;10.176;2023-05-10T09:55:37;5.73;;;2.23;;
7029;SDS011;3556;53.500;10.176;2023-05-10T09:58:04;4.73;;;3.27;;
7029;SDS011;3556;53.500;10.176;2023-05-10T10:00:35;6.97;;;3.00;;
7029;SDS011;3556;53.500;10.176;2023-05-10T10:03:03;6.67;;;3.10;;
7029;SDS011;3556;53.500;10.176;2023-05-10T10:05:29;6.33;;;3.03;;
7029;SDS011;3556;53.500;10.176;2023-05-10T10:07:55;8.37;;;3.90;;
7029;SDS011;3556;53.500;10.176;2023-05-10T10:10:22;4.13;;;2.63;;
7029;SDS011;3556;53.500;10.176;2023-05-10T10:12:52;5.17;;;3.27;;
7029;SDS011;3556;53.500;10.176;2023-05-10T10:15:18;4.57;;;3.40;;
7029;SDS011;3556;53.500;10.176;2023-05-10T10:17:45;17.50;;;3.73;;
7029;SDS011;3556;53.500;10.176;2023-05-10T10:20:13;5.80;;;3.43;;
7029;SDS011;3556;53.500;10.176;2023-05-10T10:22:39;7.03;;;3.40;;
7029;SDS011;3556;53.500;10.176;2023-05-10T10:25:05;15.27;;;9.13;;
7029;SDS011;3556;53.500;10.176;2023-05-10T10:35:32;7.77;;;4.73;;
7029;SDS011;3556;53.500;10.176;2023-05-10T10:37:59;6.47;;;4.03;;
7029;SDS011;3556;53.500;10.176;2023-05-10T10:40:33;7.47;;;4.93;;
7029;SDS011;3556;53.500;10.176;2023-05-10T10:43:20;9.80;;;3.93;;
7029;SDS011;3556;53.500;10.176;2023-05-10T10:45:56;6.73;;;4.10;;
7029;SDS011;3556;53.500;10.176;2023-05-10T10:48:39;6.93;;;3.83;;
7029;SDS011;3556;53.500;10.176;2023-05-10T10:51:06;8.27;;;4.67;;
7029;SDS011;3556;53.500;10.176;2023-05-10T10:53:32;19.20;;;4.40;;
7029;SDS011;3556;53.500;10.176;2023-05-10T10:56:10;5.70;;;3.83;;
7029;SDS011;3556;53.500;10.176;2023-05-10T10:58:40;7.40;;;4.17;;
7029;SDS011;3556;53.500;10.176;2023-05-10T11:01:13;4.37;;;3.30;;
7029;SDS011;3556;53.500;10.176;2023-05-10T11:04:25;6.73;;;4.27;;
7029;SDS011;3556;53.500;10.176;2023-05-10T11:06:32;7.67;;;3.37;;
7029;SDS011;3556;53.500;10.176;2023-05-10T11:08:59;6.57;;;3.70;;
7029;SDS011;3556;53.500;10.176;2023-05-10T11:11:30;4.73;;;3.67;;
7029;SDS011;3556;53.500;10.176;2023-05-10T11:13:56;7.70;;;4.37;;
7029;SDS011;3556;53.500;10.176;2023-05-10T11:16:28;19.40;;;3.47;;
7029;SDS011;3556;53.500;10.176;2023-05-10T11:19:10;7.37;;;3.90;;
7029;SDS011;3556;53.500;10.176;2023-05-10T11:21:49;7.30;;;3.53;;
7029;SDS011;3556;53.500;10.176;2023-05-10T11:24:35;5.80;;;3.47;;
7029;SDS011;3556;53.500;10.176;2023-05-10T11:27:01;7.23;;;4.70;;
7029;SDS011;3556;53.500;10.176;2023-05-10T11:29:27;8.50;;;4.70;;
7029;SDS011;3556;53.500;10.176;2023-05-10T11:31:52;6.50;;;4.37;;
7029;SDS011;3556;53.500;10.176;2023-05-10T11:34:24;7.97;;;3.83;;
7029;SDS011;3556;53.500;10.176;2023-05-10T11:36:52;7.37;;;4.30;;
7029;SDS011;3556;53.500;10.176;2023-05-10T11:39:25;5.23;;;3.93;;
7029;SDS011;3556;53.500;10.176;2023-05-10T11:41:54;7.43;;;4.37;;
7029;SDS011;3556;53.500;10.176;2023-05-10T11:44:20;9.30;;;5.00;;
7029;SDS011;3556;53.500;10.176;2023-05-10T11:46:46;14.60;;;4.90;;
7029;SDS011;3556;53.500;10.176;2023-05-10T11:49:11;1999.90;;;999.90;;
7029;SDS011;3556;53.500;10.176;2023-05-10T11:51:38;1999.90;;;999.90;;
7029;SDS011;3556;53.500;10.176;2023-05-10T11:54:07;1999.90;;;999.90;;
7029;SDS011;3556;53.500;10.176;2023-05-10T11:56:34;1999.90;;;999.90;;
7029;SDS011;3556;53.500;10.176;2023-05-10T11:59:00;1999.90;;;999.90;;
7029;SDS011;3556;53.500;10.176;2023-05-10T12:01:27;1.87;;;1.77;;
7029;SDS011;3556;53.500;10.176;2023-05-10T12:03:54;10.10;;;2.73;;
7029;SDS011;3556;53.500;10.176;2023-05-10T12:06:25;2.83;;;1.60;;
7029;SDS011;3556;53.500;10.176;2023-05-10T12:08:52;2.30;;;2.00;;
7029;SDS011;3556;53.500;10.176;2023-05-10T12:11:18;5.47;;;2.70;;
7029;SDS011;3556;53.500;10.176;2023-05-10T12:13:46;2.80;;;2.60;;
7029;SDS011;3556;53.500;10.176;2023-05-10T12:16:19;2.90;;;1.93;;
7029;SDS011;3556;53.500;10.176;2023-05-10T12:18:49;3.40;;;2.33;;
7029;SDS011;3556;53.500;10.176;2023-05-10T12:21:19;2.73;;;1.97;;
7029;SDS011;3556;53.500;10.176;2023-05-10T12:23:46;1.53;;;1.43;;
7029;SDS011;3556;53.500;10.176;2023-05-10T12:26:13;2.67;;;2.47;;
7029;SDS011;3556;53.500;10.176;2023-05-10T12:28:39;21.53;;;8.10;;
7029;SDS011;3556;53.500;10.176;2023-05-10T12:31:05;17.00;;;10.43;;
7029;SDS011;3556;53.500;10.176;2023-05-10T12:33:39;60.57;;;10.00;;
7029;SDS011;3556;53.500;10.176;2023-05-10T12:36:12;40.57;;;9.30;;
7029;SDS011;3556;53.500;10.176;2023-05-10T12:38:40;19.57;;;8.70;;
7029;SDS011;3556;53.500;10.176;2023-05-10T12:41:08;11.00;;;7.70;;
7029;SDS011;3556;53.500;10.176;2023-05-10T12:43:36;11.33;;;7.03;;
7029;SDS011;3556;53.500;10.176;2023-05-10T12:46:09;11.40;;;8.10;;
7029;SDS011;3556;53.500;10.176;2023-05-10T12:48:39;10.37;;;7.73;;
7029;SDS011;3556;53.500;10.176;2023-05-10T12:51:06;11.60;;;7.90;;
7029;SDS011;3556;53.500;10.176;2023-05-10T12:53:34;9.07;;;7.20;;
7029;SDS011;3556;53.500;10.176;2023-05-10T12:56:00;8.30;;;6.93;;
7029;SDS011;3556;53.500;10.176;2023-05-10T12:58:26;9.97;;;7.77;;
7029;SDS011;3556;53.500;10.176;2023-05-10T13:00:52;9.63;;;7.40;;
7029;SDS011;3556;53.500;10.176;2023-05-10T13:03:17;7.00;;;5.70;;
7029;SDS011;3556;53.500;10.176;2023-05-10T13:05:43;9.50;;;5.90;;
7029;SDS011;3556;53.500;10.176;2023-05-10T13:08:09;7.20;;;5.80;;
7029;SDS011;3556;53.500;10.176;2023-05-10T13:10:34;5.93;;;5.23;;
7029;SDS011;3556;53.500;10.176;2023-05-10T13:13:00;6.43;;;5.10;;
7029;SDS011;3556;53.500;10.176;2023-05-10T13:15:26;7.17;;;5.33;;
7029;SDS011;3556;53.500;10.176;2023-05-10T13:17:52;5.40;;;4.50;;
7029;SDS011;3556;53.500;10.176;2023-05-10T13:20:18;4.97;;;4.17;;
7029;SDS011;3556;53.500;10.176;2023-05-10T13:22:44;5.30;;;4.80;;
7029;SDS011;3556;53.500;10.176;2023-05-10T13:25:10;5.10;;;4.60;;
7029;SDS011;3556;53.500;10.176;2023-05-10T13:27:36;4.03;;;3.73;;
7029;SDS011;3556;53.500;10.176;2023-05-10T13:30:03;6.57;;;4.27;;
7029;SDS011;3556;53.500;10.176;2023-05-10T13:32:29;4.90;;;4.40;;
7029;SDS011;3556;53.500;10.176;2023-05-10T13:34:55;4.77;;;4.37;;
7029;SDS011;3556;53.500;10.176;2023-05-10T13:37:21;6.60;;;5.03;;
7029;SDS011;3556;53.500;10.176;2023-05-10T13:39:47;4.67;;;4.10;;
7029;SDS011;3556;53.500;10.176;2023-05-10T13:42:13;3.80;;;3.43;;
7029;SDS011;3556;53.500;10.176;2023-05-10T13:44:39;3.90;;;3.60;;
7029;SDS011;3556;53.500;10.176;2023-05-10T13:47:05;4.57;;;4.10;;
7029;SDS011;3556;53.500;10.176;2023-05-10T13:49:31;4.90;;;4.50;;
7029;SDS011;3556;53.500;10.176;2023-05-10T13:51:56;4.43;;;4.03;;
7029;SDS011;3556;53.500;10.176;2023-05-10T13:54:23;11.13;;;4.30;;
7029;SDS011;3556;53.500;10.176;2023-05-10T13:56:48;5.00;;;4.60;;
7029;SDS011;3556;53.500;10.176;2023-05-10T13:59:14;5.20;;;4.07;;
7029;SDS011;3556;53.500;10.176;2023-05-10T14:01:40;4.97;;;4.47;;
7029;SDS011;3556;53.500;10.176;2023-05-10T14:04:07;4.13;;;3.83;;
7029;SDS011;3556;53.500;10.176;2023-05-10T14:06:35;4.60;;;4.13;;
7029;SDS011;3556;53.500;10.176;2023-05-10T14:09:01;5.53;;;4.80;;
7029;SDS011;3556;53.500;10.176;2023-05-10T14:11:27;11.40;;;4.70;;
7029;SDS011;3556;53.500;10.176;2023-05-10T14:13:53;5.20;;;4.50;;
7029;SDS011;3556;53.500;10.176;2023-05-10T14:16:19;5.53;;;4.90;;
7029;SDS011;3556;53.500;10.176;2023-05-10T14:18:45;5.97;;;4.57;;
7029;SDS011;3556;53.500;10.176;2023-05-10T14:21:11;6.20;;;4.80;;
7029;SDS011;3556;53.500;10.176;2023-05-10T14:23:37;5.50;;;5.00;;
7029;SDS011;3556;53.500;10.176;2023-05-10T14:26:03;6.00;;;4.90;;
7029;SDS011;3556;53.500;10.176;2023-05-10T14:28:28;4.93;;;4.50;;
7029;SDS011;3556;53.500;10.176;2023-05-10T14:30:54;5.00;;;4.53;;
7029;SDS011;3556;53.500;10.176;2023-05-10T14:33:20;7.53;;;5.00;;
7029;SDS011;3556;53.500;10.176;2023-05-10T14:35:46;6.00;;;5.40;;
7029;SDS011;3556;53.500;10.176;2023-05-10T14:38:12;5.87;;;5.30;;
7029;SDS011;3556;53.500;10.176;2023-05-10T14:40:38;6.20;;;4.83;;
7029;SDS011;3556;53.500;10.176;2023-05-10T14:43:03;6.93;;;5.13;;
7029;SDS011;3556;53.500;10.176;2023-05-10T14:45:30;5.27;;;4.77;;
7029;SDS011;3556;53.500;10.176;2023-05-10T14:47:56;5.70;;;5.20;;
7029;SDS011;3556;53.500;10.176;2023-05-10T14:50:22;7.20;;;5.23;;
7029;SDS011;3556;53.500;10.176;2023-05-10T14:52:48;5.93;;;5.33;;
7029;SDS011;3556;53.500;10.176;2023-05-10T14:55:14;6.20;;;4.97;;
7029;SDS011;3556;53.500;10.176;2023-05-10T14:57:40;7.80;;;5.57;;
7029;SDS011;3556;53.500;10.176;2023-05-10T15:00:06;7.57;;;6.67;;
7029;SDS011;3556;53.500;10.176;2023-05-10T15:02:32;8.57;;;5.20;;
7029;SDS011;3556;53.500;10.176;2023-05-10T15:04:58;4.90;;;4.40;;
7029;SDS011;3556;53.500;10.176;2023-05-10T15:07:23;4.97;;;4.57;;
7029;SDS011;3556;53.500;10.176;2023-05-10T15:09:52;7.10;;;5.97;;
7029;SDS011;3556;53.500;10.176;2023-05-10T15:12:18;4.60;;;4.20;;
7029;SDS011;3556;53.500;10.176;2023-05-10T15:14:43;11.57;;;5.37;;
7029;SDS011;3556;53.500;10.176;2023-05-10T15:17:09;6.83;;;5.10;;
7029;SDS011;3556;53.500;10.176;2023-05-10T15:19:35;6.10;;;5.60;;
7029;SDS011;3556;53.500;10.176;2023-05-10T15:22:01;5.03;;;4.63;;
7029;SDS011;3556;53.500;10.176;2023-05-10T15:24:27;4.90;;;4.40;;